Time;durP1;ratioP1;P1;durP2;ratioP2;P2;SDS_P1;SDS_P2;PMS_P1;PMS_P2;Temp;Humidity;BMP_temperature;BMP_pressure;BME280_temperature;BME280_humidity;BME280_pressure;Samples;Min_cycle;Max_cycle;Signal;HPM_P1;HPM_P2
2022/08/07 00:02:19;;;;;;;80.53;51.45;;;;;;;18.92;100.00;99324.13;1663972;84;21070;-72
2022/08/07 00:04:46;;;;;;;78.52;53.20;;;;;;;18.90;100.00;99323.63;1687181;84;20887;-72
2022/08/07 00:07:12;;;;;;;69.53;46.73;;;;;;;18.82;100.00;99322.48;1709059;81;21243;-72
2022/08/07 00:09:40;;;;;;;82.50;50.90;;;;;;;18.75;100.00;99321.55;1699411;81;21770;-72
2022/08/07 00:12:08;;;;;;;69.60;49.50;;;;;;;18.72;100.00;99324.90;1756579;81;21051;-71
2022/08/07 00:14:35;;;;;;;68.05;47.17;;;;;;;18.70;100.00;99330.41;1755307;81;27078;-72
2022/08/07 00:17:02;;;;;;;69.60;48.95;;;;;;;18.69;100.00;99333.69;1755893;81;20949;-72
2022/08/07 00:19:31;;;;;;;62.40;45.85;;;;;;;18.69;100.00;99330.97;1752418;81;21251;-71
2022/08/07 00:21:58;;;;;;;69.30;48.38;;;;;;;18.65;100.00;99328.62;1754824;81;20885;-71
2022/08/07 00:24:25;;;;;;;66.50;48.70;;;;;;;18.60;100.00;99332.84;1755259;81;20901;-71
2022/08/07 00:26:52;;;;;;;73.55;51.30;;;;;;;18.57;100.00;99338.34;1757387;81;20988;-71
2022/08/07 00:29:24;;;;;;;78.12;53.10;;;;;;;18.53;100.00;99331.91;1744200;81;21028;-71
2022/08/07 00:31:48;;;;;;;71.50;48.45;;;;;;;18.50;100.00;99337.98;1726655;81;21302;-71
2022/08/07 00:34:15;;;;;;;64.60;48.63;;;;;;;18.49;100.00;99338.28;1679884;85;21151;-71
2022/08/07 00:36:43;;;;;;;68.70;48.92;;;;;;;18.48;100.00;99340.20;1726555;81;20955;-71
2022/08/07 00:39:12;;;;;;;65.78;47.03;;;;;;;18.43;100.00;99337.05;1718312;82;20995;-71
2022/08/07 00:41:38;;;;;;;76.35;50.00;;;;;;;18.39;100.00;99338.78;1719645;82;20848;-72
2022/08/07 00:44:06;;;;;;;67.00;46.55;;;;;;;18.35;100.00;99343.81;1676082;85;21266;-71
2022/08/07 00:46:33;;;;;;;57.58;41.65;;;;;;;18.32;100.00;99345.20;1708304;83;20982;-71
2022/08/07 00:49:01;;;;;;;59.95;43.33;;;;;;;18.27;100.00;99335.03;1677203;85;21856;-72
2022/08/07 00:51:29;;;;;;;56.53;41.00;;;;;;;18.26;100.00;99336.16;1672309;85;20999;-72
2022/08/07 00:53:56;;;;;;;55.33;39.50;;;;;;;18.23;100.00;99333.50;1673192;85;21057;-72
2022/08/07 00:56:22;;;;;;;50.73;36.80;;;;;;;18.22;100.00;99341.39;1678063;84;21701;-71
2022/08/07 00:58:49;;;;;;;64.58;40.85;;;;;;;18.18;100.00;99338.50;1718051;82;21099;-72
2022/08/07 01:01:17;;;;;;;49.30;38.60;;;;;;;18.15;100.00;99342.38;1680506;85;21096;-72
2022/08/07 01:03:43;;;;;;;57.38;42.75;;;;;;;18.10;100.00;99338.43;1645872;84;20960;-72
2022/08/07 01:06:10;;;;;;;55.65;42.60;;;;;;;18.06;100.00;99343.69;1729288;81;21035;-72
2022/08/07 01:08:37;;;;;;;57.17;40.20;;;;;;;18.02;100.00;99339.18;1727922;81;21421;-72
2022/08/07 01:11:04;;;;;;;61.18;40.70;;;;;;;18.02;100.00;99343.25;1672434;82;22136;-72
2022/08/07 01:13:31;;;;;;;53.37;40.20;;;;;;;17.99;100.00;99346.03;1728307;81;20907;-72
2022/08/07 01:15:58;;;;;;;49.10;39.23;;;;;;;17.95;100.00;99351.82;1726583;81;20964;-73
2022/08/07 01:18:26;;;;;;;59.08;41.90;;;;;;;17.92;100.00;99353.23;1727720;81;20987;-73
2022/08/07 01:21:12;;;;;;;65.87;43.80;;;;;;;17.88;100.00;99352.80;1724155;81;25311;-72
2022/08/07 01:23:41;;;;;;;54.08;42.10;;;;;;;17.89;100.00;99352.50;1703933;81;21529;-73
2022/08/07 01:26:12;;;;;;;58.92;42.60;;;;;;;17.89;100.00;99344.92;1726139;81;21051;-72
2022/08/07 01:28:43;;;;;;;52.53;42.17;;;;;;;17.92;100.00;99349.73;1726951;81;21038;-72
2022/08/07 01:31:10;;;;;;;55.73;41.92;;;;;;;17.95;100.00;99348.55;1732480;81;21011;-74
2022/08/07 01:33:37;;;;;;;55.83;42.13;;;;;;;17.95;100.00;99351.82;1728348;81;21871;-72
2022/08/07 01:36:08;;;;;;;54.73;40.10;;;;;;;17.94;100.00;99349.66;1713068;81;21573;-72
2022/08/07 01:38:38;;;;;;;51.65;39.90;;;;;;;17.91;100.00;99361.15;1697763;82;20859;-73
2022/08/07 01:41:06;;;;;;;54.45;38.90;;;;;;;17.86;100.00;99358.55;1725184;82;21726;-73
2022/08/07 01:43:35;;;;;;;51.65;39.53;;;;;;;17.78;100.00;99357.34;1723937;82;21051;-72
2022/08/07 01:46:02;;;;;;;57.58;41.15;;;;;;;17.74;100.00;99353.63;1719372;82;21259;-72
2022/08/07 01:48:31;;;;;;;54.13;42.15;;;;;;;17.69;100.00;99351.03;1739015;82;20982;-72
2022/08/07 01:51:06;;;;;;;55.67;41.13;;;;;;;17.67;100.00;99354.59;1723785;82;20988;-72
2022/08/07 01:53:35;;;;;;;57.58;39.73;;;;;;;17.65;100.00;99351.38;1727912;82;20890;-72
2022/08/07 01:56:12;;;;;;;54.95;38.40;;;;;;;17.64;100.00;99355.75;1720720;82;21038;-72
2022/08/07 01:58:44;;;;;;;52.73;37.55;;;;;;;17.58;100.00;99358.58;1725283;82;21223;-73
2022/08/07 02:01:14;;;;;;;47.27;35.98;;;;;;;17.53;100.00;99355.97;1733037;82;20931;-72
2022/08/07 02:03:44;;;;;;;45.70;36.42;;;;;;;17.48;100.00;99356.64;1739409;82;20981;-71
2022/08/07 02:06:15;;;;;;;56.23;39.23;;;;;;;17.43;100.00;99358.91;1735695;82;21066;-72
2022/08/07 02:08:43;;;;;;;52.78;38.13;;;;;;;17.41;100.00;99360.33;1727041;81;21483;-73
2022/08/07 02:11:11;;;;;;;51.85;38.42;;;;;;;17.41;100.00;99362.48;1698539;82;20948;-72
2022/08/07 02:13:40;;;;;;;53.50;37.90;;;;;;;17.41;100.00;99358.97;1684641;81;21085;-73
2022/08/07 02:16:07;;;;;;;44.67;34.45;;;;;;;17.40;100.00;99360.88;1715638;81;20989;-72
2022/08/07 02:18:35;;;;;;;44.58;35.75;;;;;;;17.40;100.00;99369.02;1716445;81;21091;-72
2022/08/07 02:21:04;;;;;;;41.73;30.70;;;;;;;17.42;100.00;99371.41;1699141;83;21593;-72
2022/08/07 02:23:37;;;;;;;44.53;31.97;;;;;;;17.43;100.00;99372.48;1693020;83;21073;-73
2022/08/07 02:26:05;;;;;;;43.60;33.45;;;;;;;17.48;100.00;99396.78;1697713;83;21061;-73
2022/08/07 02:28:33;;;;;;;40.50;31.30;;;;;;;17.59;100.00;99387.89;1701755;82;20934;-73
2022/08/07 02:31:01;;;;;;;;;;;;;;;17.67;100.00;99386.38;1731882;81;21125;-74
2022/08/07 02:33:28;;;;;;;31.00;25.65;;;;;;;17.72;100.00;99381.63;1729067;81;20163;-72
2022/08/07 02:35:55;;;;;;;30.95;25.12;;;;;;;17.77;100.00;99380.71;1722259;81;21854;-72
2022/08/07 02:38:30;;;;;;;42.50;25.95;;;;;;;17.77;100.00;99376.08;1721200;81;20948;-74
2022/08/07 02:40:57;;;;;;;35.98;27.60;;;;;;;17.76;100.00;99382.63;1726536;81;21035;-73
2022/08/07 02:43:23;;;;;;;34.00;29.07;;;;;;;17.79;100.00;99385.28;1727720;81;20982;-72
2022/08/07 02:45:50;;;;;;;32.00;26.82;;;;;;;17.77;100.00;99380.71;1728007;81;20933;-73
2022/08/07 02:48:17;;;;;;;41.55;32.88;;;;;;;17.75;100.00;99385.64;1728840;81;21251;-73
2022/08/07 02:50:47;;;;;;;41.75;34.25;;;;;;;17.73;100.00;99382.42;1726630;81;21174;-74
2022/08/07 02:53:17;;;;;;;41.90;32.95;;;;;;;17.72;100.00;99384.34;1692802;82;21024;-73
2022/08/07 02:55:46;;;;;;;44.95;31.02;;;;;;;17.75;100.00;99390.51;1692637;83;20954;-72
2022/08/07 02:58:18;;;;;;;45.48;35.38;;;;;;;17.79;100.00;99385.28;1707319;82;21016;-73
2022/08/07 03:00:49;;;;;;;50.40;36.88;;;;;;;17.81;100.00;99389.89;1709144;82;21172;-73
2022/08/07 03:03:17;;;;;;;44.27;33.15;;;;;;;17.84;100.00;99387.91;1708403;83;21045;-72
2022/08/07 03:05:45;;;;;;;38.05;32.35;;;;;;;17.90;100.00;99394.02;1712949;83;21212;-73
2022/08/07 03:08:12;;;;;;;40.33;32.80;;;;;;;17.94;100.00;99392.31;1713051;83;21563;-73
2022/08/07 03:10:40;;;;;;;41.63;31.48;;;;;;;17.96;100.00;99397.69;1709364;83;20981;-73
2022/08/07 03:13:09;;;;;;;38.67;30.65;;;;;;;18.02;100.00;99401.08;1710521;83;25122;-73
2022/08/07 03:15:36;;;;;;;49.77;40.35;;;;;;;18.11;100.00;99405.23;1711863;83;20933;-72
2022/08/07 03:18:03;;;;;;;43.25;37.03;;;;;;;18.18;100.00;99402.90;1709510;82;20987;-72
2022/08/07 03:20:30;;;;;;;41.13;35.13;;;;;;;18.28;100.00;99407.28;1686266;83;21076;-72
2022/08/07 03:22:56;;;;;;;44.93;38.00;;;;;;;18.32;100.00;99400.11;1708280;84;20929;-72
2022/08/07 03:25:24;;;;;;;48.85;38.33;;;;;;;18.36;100.00;99398.39;1709926;83;21245;-73
2022/08/07 03:27:53;;;;;;;46.63;35.95;;;;;;;18.41;100.00;99402.34;1710296;82;21095;-72
2022/08/07 03:30:21;;;;;;;45.30;33.60;;;;;;;18.49;100.00;99406.22;1662656;84;20980;-73
2022/08/07 03:32:48;;;;;;;34.38;29.50;;;;;;;18.59;100.00;99406.78;1657935;85;20962;-74
2022/08/07 03:35:20;;;;;;;44.27;30.57;;;;;;;18.64;100.00;99409.91;1707450;81;20989;-74
2022/08/07 03:37:58;;;;;;;34.70;29.42;;;;;;;18.73;100.00;99416.77;1699492;83;21094;-73
2022/08/07 03:40:27;;;;;;;39.70;30.12;;;;;;;18.84;100.00;99420.30;1705486;81;21046;-74
2022/08/07 03:42:56;;;;;;;34.53;27.73;;;;;;;19.00;100.00;99415.25;1703566;81;20958;-74
2022/08/07 03:45:24;;;;;;;29.90;26.68;;;;;;;19.12;100.00;99412.52;1692962;82;21054;-73
2022/08/07 03:47:51;;;;;;;29.98;26.35;;;;;;;19.20;100.00;99409.02;1698134;83;20985;-74
2022/08/07 03:50:19;;;;;;;28.70;23.67;;;;;;;19.33;100.00;99416.28;1699085;83;21300;-74
2022/08/07 03:52:47;;;;;;;26.73;23.87;;;;;;;19.48;100.00;99415.84;1697789;82;21460;-74
2022/08/07 03:55:14;;;;;;;29.95;21.77;;;;;;;19.57;100.00;99416.41;1697691;82;21602;-73
2022/08/07 03:57:43;;;;;;;24.37;21.57;;;;;;;19.69;100.00;99420.14;1692548;83;21041;-74
2022/08/07 04:00:11;;;;;;;25.70;21.45;;;;;;;19.78;100.00;99423.46;1698840;83;21048;-72
2022/08/07 04:02:46;;;;;;;26.62;20.30;;;;;;;19.91;100.00;99422.50;1689962;83;21170;-75
2022/08/07 04:05:15;;;;;;;23.27;19.48;;;;;;;20.06;100.00;99420.69;1692728;83;21459;-74
2022/08/07 04:07:45;;;;;;;24.57;20.15;;;;;;;20.22;100.00;99421.56;1689676;83;32535;-75
2022/08/07 04:10:14;;;;;;;22.17;19.95;;;;;;;20.25;100.00;99423.08;1694055;83;21519;-76
2022/08/07 04:12:41;;;;;;;;;;;;;;;20.34;100.00;99421.72;1698925;83;20970;-76
2022/08/07 04:15:10;;;;;;;23.62;19.42;;;;;;;20.41;100.00;99421.24;1678576;84;21165;-76
2022/08/07 04:17:38;;;;;;;25.05;18.87;;;;;;;20.62;100.00;99431.73;1715926;81;21052;-77
2022/08/07 04:20:09;;;;;;;25.55;20.80;;;;;;;20.80;100.00;99429.78;1726049;81;21490;-76
2022/08/07 04:22:39;;;;;;;22.62;20.35;;;;;;;20.92;100.00;99431.81;1720403;81;21043;-77
2022/08/07 04:25:07;;;;;;;25.62;20.32;;;;;;;21.09;100.00;99432.33;1739092;81;21098;-76
2022/08/07 04:27:34;;;;;;;22.50;19.17;;;;;;;21.23;100.00;99432.91;1712748;81;21482;-76
2022/08/07 04:30:02;;;;;;;21.30;18.95;;;;;;;21.42;100.00;99432.55;1721211;81;20924;-76
2022/08/07 04:32:37;;;;;;;22.35;19.60;;;;;;;21.51;100.00;99429.75;1706927;82;21095;-75
2022/08/07 04:35:06;;;;;;;24.47;20.00;;;;;;;21.66;100.00;99440.12;1718912;82;21490;-73
2022/08/07 04:37:34;;;;;;;23.00;19.05;;;;;;;21.67;100.00;99438.19;1717620;82;20995;-73
2022/08/07 04:40:04;;;;;;;26.07;19.60;;;;;;;21.70;100.00;99443.78;1667856;83;21206;-73
2022/08/07 04:42:33;;;;;;;20.32;18.23;;;;;;;21.84;100.00;99451.17;1690318;83;20902;-73
2022/08/07 04:45:02;;;;;;;22.55;20.40;;;;;;;21.75;100.00;99455.09;1718456;82;21078;-73
2022/08/07 04:47:40;;;;;;;26.50;18.48;;;;;;;21.87;100.00;99456.53;1680229;85;20930;-75
2022/08/07 04:50:13;;;;;;;22.87;19.98;;;;;;;22.04;100.00;99463.81;1718795;82;20983;-74
2022/08/07 04:53:19;;;;;;;23.77;19.95;;;;;;;22.37;100.00;99461.77;1680297;85;21274;-75
2022/08/07 04:55:51;;;;;;;26.30;18.35;;;;;;;22.58;100.00;99471.30;1645493;86;20952;-75
2022/08/07 04:58:52;;;;;;;21.87;18.60;;;;;;;22.73;100.00;99469.30;1655525;86;20988;-73
2022/08/07 05:01:45;;;;;;;19.98;17.98;;;;;;;22.89;100.00;99473.00;1594204;87;21107;-74
2022/08/07 05:04:31;;;;;;;23.80;21.00;;;;;;;23.11;100.00;99475.14;1580818;90;21075;-76
2022/08/07 05:07:09;;;;;;;21.27;19.12;;;;;;;23.42;100.00;99478.72;1590947;88;21291;-74
2022/08/07 05:09:45;;;;;;;23.55;21.20;;;;;;;23.51;100.00;99481.34;1641874;86;20985;-76
2022/08/07 05:12:15;;;;;;;21.33;19.23;;;;;;;23.57;100.00;99485.46;1598268;88;21686;-76
2022/08/07 05:14:43;;;;;;;22.55;20.27;;;;;;;23.81;100.00;99487.98;1611443;89;21134;-75
2022/08/07 05:17:14;;;;;;;23.75;19.02;;;;;;;24.01;100.00;99491.17;1648295;86;20996;-75
2022/08/07 05:19:47;;;;;;;23.92;21.37;;;;;;;24.27;100.00;99503.09;1652232;86;21310;-74
2022/08/07 05:22:18;;;;;;;25.82;20.20;;;;;;;24.27;100.00;99506.41;1650387;86;21084;-75
2022/08/07 05:24:45;;;;;;;22.60;20.15;;;;;;;24.17;100.00;99503.00;1659236;86;21016;-74
2022/08/07 05:27:13;;;;;;;23.13;20.73;;;;;;;24.39;100.00;99500.89;1659219;86;21071;-75
2022/08/07 05:29:42;;;;;;;21.75;19.65;;;;;;;24.39;100.00;99500.89;1647988;86;21596;-75
2022/08/07 05:32:09;;;;;;;22.50;20.12;;;;;;;24.45;100.00;99504.19;1647312;86;21224;-74
2022/08/07 05:34:35;;;;;;;21.37;19.32;;;;;;;24.32;100.00;99505.59;1648207;85;21114;-73
2022/08/07 05:37:03;;;;;;;26.27;20.30;;;;;;;24.13;100.00;99505.41;1637593;86;21086;-73
2022/08/07 05:39:31;;;;;;;20.82;18.57;;;;;;;24.00;100.00;99510.69;1605990;86;21604;-74
2022/08/07 05:42:00;;;;;;;23.52;21.02;;;;;;;24.07;100.00;99513.08;1646964;85;21047;-73
2022/08/07 05:44:27;;;;;;;21.77;19.02;;;;;;;24.34;100.00;99503.30;1662332;84;21130;-71
2022/08/07 05:46:54;;;;;;;24.37;20.27;;;;;;;24.70;100.00;99513.17;1680192;84;21431;-75
2022/08/07 05:49:23;;;;;;;20.20;18.10;;;;;;;24.93;100.00;99510.08;1688640;82;21008;-75
2022/08/07 05:51:50;;;;;;;21.70;18.85;;;;;;;25.18;100.00;99505.85;1713956;81;20970;-72
2022/08/07 05:54:19;;;;;;;21.60;19.45;;;;;;;24.98;100.00;99504.33;1716718;82;20964;-73
2022/08/07 05:56:46;;;;;;;23.40;18.60;;;;;;;24.81;100.00;99506.02;1680493;85;21248;-74
2022/08/07 05:59:15;;;;;;;;;;;;;;;25.00;100.00;99508.90;1720048;82;20889;-73
2022/08/07 06:01:43;;;;;;;27.42;18.30;;;;;;;25.40;100.00;99503.08;1697218;82;20111;-74
2022/08/07 06:04:10;;;;;;;21.33;18.77;;;;;;;25.62;100.00;99507.14;1679373;85;20969;-75
2022/08/07 06:06:39;;;;;;;19.20;17.20;;;;;;;25.64;100.00;99506.22;1719438;82;21399;-72
2022/08/07 06:09:07;;;;;;;19.95;17.92;;;;;;;25.87;100.00;99503.63;1680575;85;21893;-69
2022/08/07 06:11:36;;;;;;;19.27;17.27;;;;;;;25.95;100.00;99505.99;1704718;82;21020;-72
2022/08/07 06:14:04;;;;;;;22.03;18.17;;;;;;;26.29;100.00;99507.93;1719836;82;21514;-72
2022/08/07 06:16:33;;;;;;;19.62;17.73;;;;;;;26.67;100.00;99509.70;1718583;82;21333;-73
2022/08/07 06:19:01;;;;;;;25.43;18.98;;;;;;;27.01;100.00;99523.14;1678048;85;21578;-73
2022/08/07 06:21:28;;;;;;;21.02;19.02;;;;;;;27.06;100.00;99528.35;1718726;82;21226;-72
2022/08/07 06:23:55;;;;;;;21.10;18.85;;;;;;;27.12;100.00;99528.28;1679409;85;21060;-70
2022/08/07 06:26:23;;;;;;;;;;;;;;;26.67;100.00;99527.01;1679682;85;20925;-72
2022/08/07 06:28:58;;;;;;;20.30;16.77;;;;;;;26.81;100.00;99529.84;1658214;83;20279;-73
2022/08/07 06:31:25;;;;;;;18.87;16.97;;;;;;;26.90;100.00;99531.22;1680622;83;20920;-73
2022/08/07 06:33:53;;;;;;;22.17;16.20;;;;;;;26.81;100.00;99529.26;1679638;83;21157;-75
2022/08/07 06:36:20;;;;;;;20.88;17.62;;;;;;;26.45;100.00;99531.25;1744603;81;21155;-72
2022/08/07 06:38:49;;;;;;;23.07;17.25;;;;;;;26.11;100.00;99526.57;1750963;81;20984;-71
2022/08/07 06:41:38;;;;;;;19.45;17.10;;;;;;;25.85;100.00;99527.93;1746270;81;20878;-73
2022/08/07 06:44:05;;;;;;;20.02;17.92;;;;;;;25.62;100.00;99527.17;1752158;81;21636;-73
2022/08/07 06:46:33;;;;;;;20.30;18.20;;;;;;;25.55;100.00;99533.07;1722416;83;21161;-76
2022/08/07 06:49:00;;;;;;;20.62;17.07;;;;;;;25.64;100.00;99531.74;1709670;83;20977;-75
2022/08/07 06:51:30;;;;;;;18.55;16.55;;;;;;;25.85;100.00;99532.88;1662317;83;20989;-76
2022/08/07 06:54:02;;;;;;;26.65;17.95;;;;;;;26.56;100.00;99537.02;1694965;83;20928;-73
2022/08/07 06:56:39;;;;;;;18.27;16.57;;;;;;;26.90;100.00;99528.46;1694105;83;20876;-75
2022/08/07 06:59:20;;;;;;;19.65;17.65;;;;;;;26.66;100.00;99544.70;1702984;83;21748;-77
2022/08/07 07:01:49;;;;;;;20.80;18.80;;;;;;;26.57;100.00;99541.94;1697615;83;21063;-72
2022/08/07 07:04:16;;;;;;;20.37;18.23;;;;;;;26.17;100.00;99536.15;1664187;83;20996;-75
2022/08/07 07:06:47;;;;;;;20.83;17.73;;;;;;;25.97;100.00;99542.97;1679370;83;21008;-74
2022/08/07 07:09:30;;;;;;;19.62;17.55;;;;;;;25.87;100.00;99547.07;1685889;83;21001;-75
2022/08/07 07:12:08;;;;;;;20.25;18.17;;;;;;;26.24;100.00;99547.31;1698379;83;21322;-76
2022/08/07 07:14:52;;;;;;;20.88;18.65;;;;;;;26.88;100.00;99552.80;1692603;83;21088;-73
2022/08/07 07:17:26;;;;;;;20.27;18.27;;;;;;;26.91;100.00;99552.66;1652592;84;21065;-75
2022/08/07 07:19:56;;;;;;;24.25;16.65;;;;;;;26.99;100.00;99554.97;1665331;85;21049;-74
2022/08/07 07:22:23;;;;;;;20.40;16.73;;;;;;;27.11;100.00;99554.80;1693674;83;21054;-74
2022/08/07 07:24:50;;;;;;;20.95;17.35;;;;;;;27.50;100.00;99556.12;1691175;83;21935;-75
2022/08/07 07:27:19;;;;;;;17.13;15.57;;;;;;;27.52;100.00;99561.48;1697736;83;20997;-75
2022/08/07 07:29:50;;;;;;;17.37;15.78;;;;;;;27.92;100.00;99567.08;1714070;82;21482;-75
2022/08/07 07:32:17;;;;;;;19.10;16.87;;;;;;;28.05;100.00;99568.25;1682020;85;20962;-76
2022/08/07 07:34:48;;;;;;;17.07;15.38;;;;;;;28.09;100.00;99564.38;1717183;82;21106;-75
2022/08/07 07:37:15;;;;;;;16.82;15.15;;;;;;;27.85;100.00;99568.93;1682906;85;21160;-72
2022/08/07 07:39:41;;;;;;;19.23;14.83;;;;;;;27.94;100.00;99563.95;1718555;82;20948;-75
2022/08/07 07:42:09;;;;;;;17.42;15.80;;;;;;;27.94;100.00;99569.48;1697411;82;20924;-77
2022/08/07 07:44:38;;;;;;;17.35;15.70;;;;;;;28.08;100.00;99575.80;1678770;85;20981;-77
2022/08/07 07:47:05;;;;;;;17.27;15.55;;;;;;;28.04;100.00;99574.95;1726433;81;21435;-73
2022/08/07 07:49:33;;;;;;;16.52;14.85;;;;;;;27.79;100.00;99574.73;1727623;81;21719;-73
2022/08/07 07:52:00;;;;;;;16.55;14.85;;;;;;;27.84;100.00;99564.59;1704203;82;28408;-76
2022/08/07 07:54:27;;;;;;;14.55;12.85;;;;;;;28.05;100.00;99579.28;1699262;82;21016;-75
2022/08/07 07:56:54;;;;;;;15.85;13.50;;;;;;;28.33;100.00;99581.68;1722731;81;22103;-76
2022/08/07 07:59:21;;;;;;;15.72;13.60;;;;;;;28.50;100.00;99577.02;1674557;83;21083;-74
2022/08/07 08:01:48;;;;;;;18.87;14.67;;;;;;;28.51;100.00;99589.64;1656055;86;22395;-71
2022/08/07 08:04:15;;;;;;;15.13;13.75;;;;;;;28.21;100.00;99584.86;1680279;84;20942;-70
2022/08/07 08:06:43;;;;;;;16.07;13.00;;;;;;;28.26;100.00;99582.37;1647420;84;20991;-73
2022/08/07 08:09:10;;;;;;;16.07;13.72;;;;;;;27.90;100.00;99585.16;1697717;83;21141;-74
2022/08/07 08:11:37;;;;;;;15.90;14.28;;;;;;;27.58;100.00;99582.64;1656949;86;21568;-73
2022/08/07 08:14:04;;;;;;;;;;;;;;;27.24;100.00;99574.74;1717079;82;21227;-73
2022/08/07 08:16:39;;;;;;;;;;;;;;;27.16;100.00;99575.95;1721010;83;20167;-75
2022/08/07 08:19:07;;;;;;;;;;;;;;;27.28;100.00;99573.65;1719486;83;20170;-72
2022/08/07 08:27:04;;;;;;;;;;;;;;;28.05;100.00;99573.77;1721476;82;21198;-74
2022/08/07 08:29:33;;;;;;;;;;;;;;;28.33;100.00;99576.95;1732494;82;20127;-75
2022/08/07 08:31:59;;;;;;;;;;;;;;;28.19;100.00;99574.77;1736093;82;20107;-74
2022/08/07 08:34:33;;;;;;;;;;;;;;;28.60;100.00;99576.95;1704059;82;20715;-76
2022/08/07 08:37:01;;;;;;;;;;;;;;;29.17;100.00;99581.00;1676839;85;20164;-72
2022/08/07 08:39:28;;;;;;;;;;;;;;;29.10;96.21;99578.94;1721727;81;21156;-72
2022/08/07 08:42:12;;;;;;;;;;;;;;;29.22;96.95;99582.03;1714056;82;20427;-72
2022/08/07 08:45:06;;;;;;;;;;;;;;;29.57;95.20;99579.40;1699072;83;20115;-72
2022/08/07 08:47:56;;;;;;;;;;;;;;;29.80;91.07;99580.63;1699890;83;20097;-72
2022/08/07 08:50:31;;;;;;;;;;;;;;;29.83;87.82;99585.39;1687517;84;20120;-74
2022/08/07 08:53:10;;;;;;;;;;;;;;;29.66;84.19;99565.48;1651829;86;21172;-72
2022/08/07 08:55:55;;;;;;;;;;;;;;;29.62;85.15;99578.48;1653681;86;20106;-73
2022/08/07 08:58:25;;;;;;;;;;;;;;;29.27;90.08;99581.09;1688876;84;20460;-71
2022/08/07 09:00:54;;;;;;;;;;;;;;;29.54;87.03;99586.48;1688548;85;20143;-73
2022/08/07 09:03:36;;;;;;;;;;;;;;;29.78;84.46;99587.92;1688168;84;20527;-72
2022/08/07 09:06:15;;;;;;;;;;;;;;;29.79;83.90;99587.33;1682308;84;21264;-72
2022/08/07 09:08:48;;;;;;;;;;;;;;;29.51;86.77;99574.03;1687372;84;20182;-72
2022/08/07 09:11:17;;;;;;;;;;;;;;;29.42;91.10;99584.83;1681533;85;20180;-73
2022/08/07 09:14:14;;;;;;;;;;;;;;;29.39;96.75;99580.63;1681060;85;20464;-73
2022/08/07 09:16:56;;;;;;;;;;;;;;;29.37;96.40;99569.94;1691960;83;20160;-74
2022/08/07 09:19:47;;;;;;;;;;;;;;;29.44;95.70;99571.98;1655086;86;21843;-72
2022/08/07 09:22:39;;;;;;;;;;;;;;;29.73;92.97;99568.91;1679689;83;20216;-75
2022/08/07 09:25:12;;;;;;;;;;;;;;;29.62;94.94;99572.95;1675383;84;20175;-76
2022/08/07 09:27:45;;;;;;;;;;;;;;;29.54;96.46;99564.96;1688824;83;20093;-73
2022/08/07 09:30:12;;;;;;;;;;;;;;;29.13;97.90;99558.05;1714589;82;20071;-74
2022/08/07 09:33:09;;;;;;;;;;;;;;;28.58;100.00;99555.81;1723807;82;21191;-74
2022/08/07 09:35:39;;;;;;;;;;;;;;;28.70;100.00;99561.69;1723087;82;20087;-73
2022/08/07 09:38:12;;;;;;;;;;;;;;;28.94;100.00;99564.54;1719683;82;20099;-72
2022/08/07 09:40:52;;;;;;;;;;;;;;;29.34;100.00;99565.77;1721748;82;20550;-74
2022/08/07 09:43:34;;;;;;;;;;;;;;;29.19;98.80;99565.63;1717160;82;20482;-73
2022/08/07 09:46:14;;;;;;;;;;;;;;;28.99;98.67;99565.58;1720067;82;21286;-72
2022/08/07 09:49:08;;;;;;;;;;;;;;;29.13;100.00;99555.28;1720354;82;20185;-72
2022/08/07 09:51:57;;;;;;;;;;;;;;;29.63;89.40;99562.68;1720547;82;20095;-72
2022/08/07 09:54:42;;;;;;;;;;;;;;;30.07;89.77;99564.63;1721541;82;20154;-71
2022/08/07 09:57:33;;;;;;;;;;;;;;;29.78;83.86;99569.15;1721015;82;20456;-73
2022/08/07 10:00:11;;;;;;;;;;;;;;;28.89;91.72;99560.73;1650471;84;21263;-72
2022/08/07 10:03:02;;;;;;;;;;;;;;;28.72;100.00;99564.88;1644680;86;20270;-72
2022/08/07 10:05:41;;;;;;;;;;;;;;;29.31;97.23;99562.39;1649239;84;20180;-72
2022/08/07 10:08:17;;;;;;;;;;;;;;;29.36;91.28;99568.95;1663620;84;20483;-72
2022/08/07 10:11:05;;;;;;;;;;;;;;;29.11;94.43;99562.59;1670130;85;20465;-72
2022/08/07 10:13:44;;;;;;;;;;;;;;;28.52;100.00;99567.78;1668344;85;21837;-76
2022/08/07 10:16:27;;;;;;;;;;;;;;;27.85;100.00;99558.69;1667178;85;20117;-73
2022/08/07 10:19:03;;;;;;;;;;;;;;;27.98;100.00;99556.55;1673688;85;20493;-73
2022/08/07 10:21:54;;;;;;;;;;;;;;;28.48;100.00;99550.95;1670691;85;20183;-73
2022/08/07 10:24:44;;;;;;;;;;;;;;;28.59;100.00;99559.59;1675695;85;20153;-72
2022/08/07 10:27:28;;;;;;;;;;;;;;;28.64;100.00;99558.47;1670092;85;21565;-73
2022/08/07 10:30:05;;;;;;;;;;;;;;;28.96;100.00;99558.84;1666445;85;20179;-71
2022/08/07 10:33:01;;;;;;;;;;;;;;;29.12;100.00;99553.11;1661377;85;20258;-72
2022/08/07 10:35:37;;;;;;;;;;;;;;;29.04;99.54;99552.80;1659582;85;20504;-71
2022/08/07 10:38:29;;;;;;;;;;;;;;;28.57;100.00;99532.94;1715411;81;20103;-69
2022/08/07 10:41:08;;;;;;;;;;;;;;;28.61;100.00;99537.93;1659181;85;21246;-73
2022/08/07 10:43:47;;;;;;;;;;;;;;;28.36;100.00;99531.25;1656329;86;20454;-75
2022/08/07 10:46:25;;;;;;;;;;;;;;;28.27;100.00;99532.92;1658253;84;20302;-73
2022/08/07 10:49:13;;;;;;;;;;;;;;;28.32;100.00;99529.84;1648617;86;20149;-72
2022/08/07 10:51:44;;;;;;;;;;;;;;;28.21;100.00;99524.16;1643239;84;20146;-71
2022/08/07 10:54:20;;;;;;;;;;;;;;;28.64;100.00;99524.74;1646458;86;21274;-72
2022/08/07 10:56:59;;;;;;;;;;;;;;;29.12;100.00;99526.86;1655354;85;20573;-69
2022/08/07 10:59:30;;;;;;;;;;;;;;;29.19;93.83;99526.94;1654560;85;20154;-73
2022/08/07 11:02:03;;;;;;;;;;;;;;;28.75;89.58;99505.52;1645590;85;20147;-73
2022/08/07 11:04:53;;;;;;;;;;;;;;;28.61;93.43;99510.31;1652490;86;20147;-73
2022/08/07 11:07:37;;;;;;;;;;;;;;;28.93;95.76;99513.20;1650133;85;21178;-73
2022/08/07 11:10:08;;;;;;;;;;;;;;;28.99;92.05;99495.92;1653465;86;20217;-72
2022/08/07 11:12:38;;;;;;;;;;;;;;;28.68;94.37;99488.09;1656863;86;20164;-74
2022/08/07 11:15:13;;;;;;;;;;;;;;;28.87;89.82;99499.55;1653029;85;20230;-71
2022/08/07 11:18:05;;;;;;;;;;;;;;;29.16;92.21;99497.89;1707993;81;20099;-73
2022/08/07 11:20:38;;;;;;;;;;;;;;;29.17;89.03;99498.09;1728985;81;21182;-72
2022/08/07 11:23:12;;;;;;;;;;;;;;;29.14;91.16;99501.03;1718754;82;20119;-73
2022/08/07 11:25:43;;;;;;;;;;;;;;;29.22;89.76;99508.20;1704393;82;20085;-71
2022/08/07 11:28:31;;;;;;;;;;;;;;;29.05;86.03;99499.13;1713403;81;20095;-72
2022/08/07 11:31:10;;;;;;;;;;;;;;;28.91;90.49;99506.70;1732342;82;20175;-69
2022/08/07 11:33:55;;;;;;;;;;;;;;;29.04;85.58;99507.22;1704062;81;21885;-73
2022/08/07 11:36:40;;;;;;;;;;;;;;;28.87;83.68;99505.07;1675448;84;20130;-75
2022/08/07 11:39:25;;;;;;;;;;;;;;;28.74;86.41;99506.71;1686898;84;20089;-76
2022/08/07 11:41:58;;;;;;;;;;;;;;;28.98;89.09;99508.16;1648667;85;20549;-74
2022/08/07 11:44:37;;;;;;;;;;;;;;;29.18;89.90;99517.06;1669304;84;20182;-69
2022/08/07 11:47:13;;;;;;;;;;;;;;;28.81;91.06;99498.50;1663335;86;21312;-74
2022/08/07 11:50:18;;;;;;;;;;;;;;;28.69;95.47;99514.52;1663690;84;20380;-73
2022/08/07 11:53:07;;;;;;;;;;;;;;;28.44;98.62;99517.73;1679919;84;20173;-76
2022/08/07 11:55:51;;;;;;;;;;;;;;;28.59;97.00;99514.03;1669652;84;21051;-76
2022/08/07 11:58:31;;;;;;;;;;;;;;;28.57;93.33;99516.97;1639757;86;20148;-73
2022/08/07 12:01:05;;;;;;;;;;;;;;;28.34;93.21;99520.57;1661266;84;21352;-75
2022/08/07 12:03:45;;;;;;;;;;;;;;;28.33;95.59;99519.58;1663898;84;20246;-75
2022/08/07 12:06:24;;;;;;;;;;;;;;;28.42;93.66;99523.66;1674965;85;20182;-77
2022/08/07 12:08:57;;;;;;;;;;;;;;;28.57;89.31;99519.13;1654585;84;20222;-75